createdAt,value
2022-11-16T00:02:13.793Z,98054.84
2022-11-16T00:04:41.592Z,98056.44
2022-11-16T00:07:09.527Z,98051.50
2022-11-16T00:09:37.330Z,98058.25
2022-11-16T00:12:07.467Z,98052.44
2022-11-16T00:14:36.035Z,98051.63
2022-11-16T00:17:04.161Z,98055.84
2022-11-16T00:19:33.950Z,98062.50
2022-11-16T00:22:00.864Z,98059.94
2022-11-16T00:24:27.712Z,98064.22
2022-11-16T00:26:56.136Z,98054.13
2022-11-16T00:29:26.027Z,98060.88
2022-11-16T00:31:54.198Z,98058.19
2022-11-16T00:34:22.850Z,98064.88
2022-11-16T00:36:50.259Z,98063.91
2022-11-16T00:39:21.849Z,98066.44
2022-11-16T00:41:49.035Z,98064.75
2022-11-16T00:44:15.952Z,98068.88
2022-11-16T00:46:43.132Z,98073.00
2022-11-16T00:49:10.192Z,98063.66
2022-11-16T00:51:37.872Z,98067.81
2022-11-16T00:54:06.811Z,98067.09
2022-11-16T00:56:34.277Z,98065.34
2022-11-16T00:59:01.171Z,98062.66
2022-11-16T01:01:28.161Z,98047.38
2022-11-16T01:03:55.368Z,98054.78
2022-11-16T01:06:23.481Z,98043.81
2022-11-16T01:08:50.603Z,98046.22
2022-11-16T01:11:37.167Z,98048.66
2022-11-16T01:14:07.794Z,98050.44
2022-11-16T01:16:34.770Z,98038.78
2022-11-16T01:19:01.971Z,98044.66
2022-11-16T01:21:28.941Z,98037.19
2022-11-16T01:23:57.183Z,98032.09
2022-11-16T01:26:25.263Z,98049.03
2022-11-16T01:28:56.029Z,98040.56
2022-11-16T01:31:23.027Z,98042.22
2022-11-16T01:33:49.907Z,98045.66
2022-11-16T01:36:16.933Z,98042.16
2022-11-16T01:38:46.543Z,98037.13
2022-11-16T01:41:24.441Z,98043.81
2022-11-16T01:44:01.483Z,98041.97
2022-11-16T01:46:29.921Z,98047.00
2022-11-16T01:49:10.829Z,98039.38
2022-11-16T01:51:39.181Z,98023.94
2022-11-16T01:54:11.451Z,98023.94
2022-11-16T01:56:41.532Z,98016.38
2022-11-16T01:59:09.194Z,98015.56
2022-11-16T02:01:36.368Z,98016.38
2022-11-16T02:04:03.632Z,98020.59
2022-11-16T02:07:13.506Z,98024.72
2022-11-16T02:10:16.441Z,98015.44
2022-11-16T02:13:26.776Z,98011.22
2022-11-16T02:16:30.017Z,98004.50
2022-11-16T02:19:11.923Z,98005.25
2022-11-16T02:21:51.255Z,98002.63
2022-11-16T02:24:44.842Z,98006.75
2022-11-16T02:28:08.180Z,98008.50
2022-11-16T02:30:37.436Z,98001.00
2022-11-16T02:33:15.214Z,97992.59
2022-11-16T02:35:56.781Z,98008.50
2022-11-16T02:38:32.813Z,98011.81
2022-11-16T02:41:10.201Z,97998.31
2022-11-16T02:43:54.647Z,98007.56
2022-11-16T02:46:31.151Z,98007.69
2022-11-16T02:49:03.600Z,98006.03
2022-11-16T02:51:32.568Z,98023.72
2022-11-16T02:54:21.549Z,98022.97
2022-11-16T02:57:02.977Z,98025.38
2022-11-16T02:59:41.725Z,98031.28
2022-11-16T03:02:26.310Z,98031.28
2022-11-16T03:05:32.071Z,98034.91
2022-11-16T03:08:41.133Z,98037.03
2022-11-16T03:11:30.164Z,98039.81
2022-11-16T03:14:06.665Z,98051.81
2022-11-16T03:16:46.276Z,98049.28
2022-11-16T03:19:23.975Z,98049.28
2022-11-16T03:22:03.890Z,98041.84
2022-11-16T03:24:33.321Z,98046.25
2022-11-16T03:27:44.551Z,98046.34
2022-11-16T03:30:17.340Z,98042.22
2022-11-16T03:33:12.632Z,98056.59
2022-11-16T03:35:55.200Z,98057.53
2022-11-16T03:38:26.282Z,98059.34
2022-11-16T03:41:02.669Z,98063.63
2022-11-16T03:43:32.399Z,98058.63
2022-11-16T03:46:00.343Z,98052.00
2022-11-16T03:48:37.932Z,98054.56
2022-11-16T03:51:06.483Z,98053.75
2022-11-16T03:53:33.523Z,98057.97
2022-11-16T03:56:00.255Z,98063.00
2022-11-16T03:58:27.047Z,98056.97
2022-11-16T04:00:54.102Z,98061.03
2022-11-16T04:03:21.688Z,98058.56
2022-11-16T04:06:07.499Z,98055.88
2022-11-16T04:08:52.945Z,98062.69
2022-11-16T04:11:41.221Z,98061.09
2022-11-16T04:14:35.753Z,98062.81
2022-11-16T04:17:21.535Z,98068.91
2022-11-16T04:20:07.019Z,98066.53
2022-11-16T04:23:05.984Z,98082.56
2022-11-16T04:25:37.860Z,98070.03
2022-11-16T04:28:14.216Z,98079.31
2022-11-16T04:31:06.346Z,98079.25
2022-11-16T04:33:52.779Z,98072.56
2022-11-16T04:36:38.650Z,98071.75
2022-11-16T04:39:05.887Z,98080.28
2022-11-16T04:41:51.881Z,98080.34
2022-11-16T04:44:19.216Z,98078.78
2022-11-16T04:47:05.347Z,98091.56
2022-11-16T04:49:32.658Z,98095.94
2022-11-16T04:52:00.161Z,98083.31
2022-11-16T04:54:26.969Z,98091.09
2022-11-16T04:56:53.805Z,98098.72
2022-11-16T04:59:20.609Z,98096.38
2022-11-16T05:02:06.025Z,98102.34
2022-11-16T05:04:32.870Z,98107.69
2022-11-16T05:06:59.881Z,98102.69
2022-11-16T05:09:26.753Z,98109.63
2022-11-16T05:11:53.695Z,98103.81
2022-11-16T05:14:20.550Z,98098.81
2022-11-16T05:16:47.388Z,98101.50
2022-11-16T05:19:32.457Z,98105.78
2022-11-16T05:21:59.456Z,98101.03
2022-11-16T05:24:37.586Z,98109.56
2022-11-16T05:27:11.258Z,98109.78
2022-11-16T05:29:38.333Z,98111.59
2022-11-16T05:32:06.950Z,98116.84
2022-11-16T05:34:34.384Z,98119.38
2022-11-16T05:37:01.469Z,98119.53
2022-11-16T05:39:28.327Z,98121.34
2022-11-16T05:41:56.999Z,98125.72
2022-11-16T05:44:24.842Z,98125.84
2022-11-16T05:46:52.518Z,98126.03
2022-11-16T05:49:19.786Z,98128.75
2022-11-16T05:51:47.949Z,98134.88
2022-11-16T05:54:19.002Z,98144.22
2022-11-16T05:56:47.076Z,98151.97
2022-11-16T05:59:19.901Z,98148.75
2022-11-16T06:01:47.461Z,98154.69
2022-11-16T06:04:15.103Z,98148.94
2022-11-16T06:06:42.224Z,98144.84
2022-11-16T06:09:12.430Z,98156.69
2022-11-16T06:11:39.271Z,98145.91
2022-11-16T06:14:06.990Z,98147.69
2022-11-16T06:16:34.078Z,98146.13
2022-11-16T06:19:01.237Z,98154.59
2022-11-16T06:21:28.349Z,98152.16
2022-11-16T06:23:55.468Z,98158.16
2022-11-16T06:26:22.465Z,98150.81
2022-11-16T06:28:49.463Z,98149.19
2022-11-16T06:31:16.311Z,98155.13
2022-11-16T06:33:43.143Z,98155.19
2022-11-16T06:36:09.953Z,98168.00
2022-11-16T06:38:37.270Z,98156.25
2022-11-16T06:41:04.627Z,98163.22
2022-11-16T06:43:31.592Z,98169.31
2022-11-16T06:45:58.540Z,98170.28
2022-11-16T06:48:26.091Z,98167.00
2022-11-16T06:50:53.732Z,98164.59
2022-11-16T06:53:27.495Z,98171.47
2022-11-16T06:56:00.234Z,98174.13
2022-11-16T06:58:31.515Z,98169.22
2022-11-16T07:01:08.826Z,98170.16
2022-11-16T07:03:35.712Z,98180.44
2022-11-16T07:06:08.809Z,98181.31
2022-11-16T07:08:36.091Z,98175.72
2022-11-16T07:11:06.126Z,98175.84
2022-11-16T07:13:38.961Z,98177.19
2022-11-16T07:16:12.175Z,98186.81
2022-11-16T07:18:41.411Z,98185.34
2022-11-16T07:21:11.999Z,98190.41
2022-11-16T07:23:39.830Z,98195.56
2022-11-16T07:26:08.583Z,98200.72
2022-11-16T07:28:36.279Z,98201.59
2022-11-16T07:31:10.206Z,98205.06
2022-11-16T07:33:37.888Z,98200.94
2022-11-16T07:36:15.122Z,98205.97
2022-11-16T07:38:43.718Z,98211.00
2022-11-16T07:41:17.456Z,98206.88
2022-11-16T07:43:49.929Z,98206.13
2022-11-16T07:46:46.619Z,98204.47
2022-11-16T07:49:18.838Z,98213.75
2022-11-16T07:51:46.504Z,98217.63
2022-11-16T07:54:16.424Z,98222.84
2022-11-16T07:56:43.245Z,98225.75
2022-11-16T07:59:10.137Z,98226.53
2022-11-16T08:01:37.102Z,98229.53
2022-11-16T08:04:03.956Z,98241.97
2022-11-16T08:06:32.329Z,98243.44
2022-11-16T08:08:59.744Z,98243.00
2022-11-16T08:11:27.716Z,98243.06
2022-11-16T08:13:55.756Z,98257.78
2022-11-16T08:16:23.821Z,98261.94
2022-11-16T08:18:50.757Z,98265.94
2022-11-16T08:21:19.333Z,98269.03
2022-11-16T08:23:46.947Z,98266.97
2022-11-16T08:26:17.751Z,98271.56
2022-11-16T08:28:47.508Z,98275.41
2022-11-16T08:31:19.505Z,98264.72
2022-11-16T08:33:46.383Z,98269.09
2022-11-16T08:36:17.490Z,98269.13
2022-11-16T08:38:46.543Z,98269.84
2022-11-16T08:41:14.795Z,98275.09
2022-11-16T08:43:42.031Z,98279.31
2022-11-16T08:46:10.802Z,98290.63
2022-11-16T08:48:38.618Z,98294.09
2022-11-16T08:51:17.553Z,98284.75
2022-11-16T08:53:45.473Z,98277.38
2022-11-16T08:56:13.696Z,98273.41
2022-11-16T08:58:47.144Z,98270.13
2022-11-16T09:01:21.092Z,98267.78
2022-11-16T09:03:47.973Z,98278.50
2022-11-16T09:06:15.876Z,98267.16
2022-11-16T09:08:44.577Z,98272.19
2022-11-16T09:11:16.075Z,98272.81
2022-11-16T09:13:45.246Z,98275.34
2022-11-16T09:16:15.873Z,98269.31
2022-11-16T09:18:46.657Z,98277.63
2022-11-16T09:21:25.651Z,98271.38
2022-11-16T09:23:54.717Z,98274.56
2022-11-16T09:26:23.289Z,98273.09
2022-11-16T09:28:59.618Z,98273.81
2022-11-16T09:31:28.562Z,98262.16
2022-11-16T09:33:59.022Z,98267.00
2022-11-16T09:36:29.748Z,98268.72
2022-11-16T09:39:28.721Z,98271.00
2022-11-16T09:42:16.476Z,98263.19
2022-11-16T09:45:06.477Z,98254.19
2022-11-16T09:47:49.547Z,98261.22
2022-11-16T09:50:47.061Z,98247.25
2022-11-16T09:53:36.534Z,98246.16
2022-11-16T09:56:13.708Z,98248.75
2022-11-16T09:59:15.056Z,98242.03
2022-11-16T10:02:23.892Z,98250.50
2022-11-16T10:05:03.903Z,98243.00
2022-11-16T10:07:48.500Z,98248.44
2022-11-16T10:10:33.176Z,98250.94
2022-11-16T10:13:25.439Z,98248.75
2022-11-16T10:16:11.502Z,98235.94
2022-11-16T10:18:52.119Z,98245.75
2022-11-16T10:22:04.164Z,98236.34
2022-11-16T10:24:35.598Z,98238.72
2022-11-16T10:27:38.445Z,98241.13
2022-11-16T10:30:19.433Z,98240.63
2022-11-16T10:33:08.165Z,98238.13
2022-11-16T10:35:53.405Z,98236.41
2022-11-16T10:38:30.337Z,98224.72
2022-11-16T10:41:13.467Z,98228.97
2022-11-16T10:43:43.807Z,98230.50
2022-11-16T10:46:36.959Z,98221.91
2022-11-16T10:49:16.180Z,98222.03
2022-11-16T10:51:43.963Z,98221.81
2022-11-16T10:54:19.322Z,98216.72
2022-11-16T10:56:57.483Z,98210.38
2022-11-16T10:59:43.411Z,98202.25
2022-11-16T11:02:25.368Z,98206.38
2022-11-16T11:05:29.589Z,98204.31
2022-11-16T11:08:11.577Z,98200.38
2022-11-16T11:10:42.848Z,98191.56
2022-11-16T11:13:12.719Z,98191.50
2022-11-16T11:15:42.897Z,98199.91
2022-11-16T11:18:30.212Z,98194.53
2022-11-16T11:21:12.463Z,98183.69
2022-11-16T11:23:52.718Z,98186.19
2022-11-16T11:26:41.662Z,98179.63
2022-11-16T11:29:21.312Z,98174.84
2022-11-16T11:31:53.630Z,98183.09
2022-11-16T11:34:33.171Z,98189.19
2022-11-16T11:37:06.779Z,98174.25
2022-11-16T11:39:37.599Z,98172.19
2022-11-16T11:42:13.703Z,98166.81
2022-11-16T11:44:49.843Z,98176.50
2022-11-16T11:48:00.902Z,98173.22
2022-11-16T11:50:52.771Z,98173.16
2022-11-16T11:53:41.437Z,98159.31
2022-11-16T11:56:13.087Z,98152.84
2022-11-16T11:58:42.487Z,98155.16
2022-11-16T12:01:31.323Z,98154.56
2022-11-16T12:04:57.595Z,98153.72
2022-11-16T12:08:06.785Z,98151.53
2022-11-16T12:11:01.537Z,98155.09
2022-11-16T12:13:51.394Z,98145.06
2022-11-16T12:16:43.841Z,98148.41
2022-11-16T12:20:03.348Z,98132.13
2022-11-16T12:23:11.646Z,98135.59
2022-11-16T12:26:05.382Z,98126.28
2022-11-16T12:28:52.157Z,98125.97
2022-11-16T12:32:02.321Z,98126.75
2022-11-16T12:35:00.335Z,98123.25
2022-11-16T12:38:16.177Z,98119.63
2022-11-16T12:41:12.369Z,98107.81
2022-11-16T12:44:12.128Z,98106.81
2022-11-16T12:46:57.736Z,98107.22
2022-11-16T12:49:52.702Z,98098.28
2022-11-16T12:52:46.219Z,98095.25
2022-11-16T12:56:06.589Z,98097.25
2022-11-16T12:59:14.632Z,98088.28
2022-11-16T13:02:13.125Z,98084.97
2022-11-16T13:04:48.270Z,98088.03
2022-11-16T13:07:47.339Z,98077.44
2022-11-16T13:10:30.368Z,98079.97
2022-11-16T13:13:34.951Z,98089.91
2022-11-16T13:15:54.283Z,98087.56
2022-11-16T13:18:23.898Z,98091.63
2022-11-16T13:21:24.783Z,98085.59
2022-11-16T13:24:03.286Z,98086.84
2022-11-16T13:27:03.422Z,98091.72
2022-11-16T13:30:00.706Z,98077.25
2022-11-16T13:32:45.709Z,98075.69
2022-11-16T13:35:17.394Z,98076.59
2022-11-16T13:37:47.603Z,98081.47
2022-11-16T13:40:30.148Z,98073.16
2022-11-16T13:43:12.035Z,98077.59
2022-11-16T13:46:00.925Z,98073.38
2022-11-16T13:48:38.640Z,98081.47
2022-11-16T13:51:16.778Z,98066.78
2022-11-16T13:56:51.545Z,98070.03
2022-11-16T13:59:29.683Z,98074.41
2022-11-16T14:02:01.716Z,98079.78
2022-11-16T14:04:58.028Z,98076.13
2022-11-16T14:07:35.149Z,98069.09
2022-11-16T14:10:05.728Z,98074.00
2022-11-16T14:12:39.241Z,98085.94
2022-11-16T14:15:20.126Z,98090.97
2022-11-16T14:17:59.670Z,98076.19
2022-11-16T14:20:57.357Z,98076.81
2022-11-16T14:23:55.658Z,98071.34
2022-11-16T14:26:58.331Z,98075.94
2022-11-16T14:29:56.432Z,98067.88
2022-11-16T14:32:29.130Z,98059.69
2022-11-16T14:34:59.467Z,98071.81
2022-11-16T14:37:29.613Z,98063.56
2022-11-16T14:40:20.142Z,98062.97
2022-11-16T14:43:15.297Z,98058.00
2022-11-16T14:45:41.550Z,98043.00
2022-11-16T14:48:21.337Z,98038.91
2022-11-16T14:51:10.038Z,98030.69
2022-11-16T14:53:44.417Z,98035.31
2022-11-16T14:56:15.304Z,98030.66
2022-11-16T14:59:01.603Z,98033.91
2022-11-16T15:01:40.734Z,98036.88
2022-11-16T15:04:11.325Z,98035.50
2022-11-16T15:06:59.568Z,98023.94
2022-11-16T15:09:37.929Z,98023.47
2022-11-16T15:12:44.354Z,98028.94
2022-11-16T15:15:11.217Z,98019.25
2022-11-16T15:17:46.454Z,98014.50
2022-11-16T15:20:25.418Z,98015.47
2022-11-16T15:22:57.793Z,98008.16
2022-11-16T15:25:43.660Z,98001.44
2022-11-16T15:28:24.850Z,98005.16
2022-11-16T15:30:58.252Z,98009.56
2022-11-16T15:33:28.459Z,98018.25
2022-11-16T15:35:55.951Z,98011.63
2022-11-16T15:38:32.829Z,98003.28
2022-11-16T15:41:03.660Z,98005.28
2022-11-16T15:43:44.752Z,98007.22
2022-11-16T15:46:18.349Z,97998.38
2022-11-16T15:48:46.581Z,98006.16
2022-11-16T15:51:24.656Z,97993.69
2022-11-16T15:54:11.787Z,97987.22
2022-11-16T15:56:39.003Z,97980.81
2022-11-16T15:59:20.196Z,97982.81
2022-11-16T16:01:47.221Z,97971.28
2022-11-16T16:04:18.717Z,97976.66
2022-11-16T16:06:53.300Z,97970.16
2022-11-16T16:09:32.915Z,97966.28
2022-11-16T16:12:23.396Z,97959.13
2022-11-16T16:14:52.400Z,97965.38
2022-11-16T16:17:37.443Z,97962.28
2022-11-16T16:20:07.394Z,97962.50
2022-11-16T16:22:37.283Z,97957.66
2022-11-16T16:25:07.137Z,97959.56
2022-11-16T16:27:40.875Z,97962.22
2022-11-16T16:30:14.107Z,97955.59
2022-11-16T16:32:40.862Z,97953.16
2022-11-16T16:35:16.818Z,97956.63
2022-11-16T16:37:44.157Z,97954.09
2022-11-16T16:40:11.388Z,97939.69
2022-11-16T16:42:42.897Z,97942.25
2022-11-16T16:45:21.452Z,97938.94
2022-11-16T16:47:48.296Z,97936.50
2022-11-16T16:50:15.665Z,97937.41
2022-11-16T16:52:42.531Z,97940.81
2022-11-16T16:55:09.546Z,97945.84
2022-11-16T16:57:36.476Z,97940.00
2022-11-16T17:00:04.386Z,97937.47
2022-11-16T17:02:36.981Z,97929.13
2022-11-16T17:05:04.321Z,97930.78
2022-11-16T17:07:31.259Z,97927.47
2022-11-16T17:09:58.076Z,97921.50
2022-11-16T17:12:24.875Z,97912.13
2022-11-16T17:14:51.953Z,97911.31
2022-11-16T17:17:20.697Z,97904.66
2022-11-16T17:19:47.717Z,97902.09
2022-11-16T17:22:14.914Z,97900.50
2022-11-16T17:24:41.836Z,97902.16
2022-11-16T17:27:08.604Z,97891.28
2022-11-16T17:29:35.520Z,97892.16
2022-11-16T17:32:03.251Z,97873.63
2022-11-16T17:34:31.888Z,97872.84
2022-11-16T17:36:58.672Z,97871.25
2022-11-16T17:39:25.397Z,97868.84
2022-11-16T17:41:52.222Z,97876.63
2022-11-16T17:44:21.884Z,97876.78
2022-11-16T17:46:49.572Z,97882.75
2022-11-16T17:49:16.433Z,97882.88
2022-11-16T17:51:43.536Z,97877.09
2022-11-16T17:54:10.451Z,97880.50
2022-11-16T17:56:46.755Z,97873.81
2022-11-16T17:59:13.536Z,97880.78
2022-11-16T18:01:40.463Z,97876.66
2022-11-16T18:04:07.323Z,97874.94
2022-11-16T18:06:35.446Z,97869.84
2022-11-16T18:09:02.654Z,97864.00
2022-11-16T18:11:29.757Z,97864.88
2022-11-16T18:14:01.117Z,97858.97
2022-11-16T18:16:31.924Z,97862.53
2022-11-16T18:19:02.859Z,97859.25
2022-11-16T18:21:39.661Z,97861.06
2022-11-16T18:24:07.217Z,97864.53
2022-11-16T18:26:34.228Z,97865.44
2022-11-16T18:29:01.016Z,97869.63
2022-11-16T18:31:28.090Z,97863.72
2022-11-16T18:33:55.183Z,97867.16
2022-11-16T18:36:22.971Z,97867.97
2022-11-16T18:38:50.725Z,97849.44
2022-11-16T18:41:24.374Z,97854.50
2022-11-16T18:43:58.149Z,97847.78
2022-11-16T18:46:31.127Z,97862.16
2022-11-16T18:48:59.520Z,97870.72
2022-11-16T18:51:31.053Z,97872.47
2022-11-16T18:53:58.055Z,97866.59
2022-11-16T18:56:29.546Z,97854.75
2022-11-16T18:58:56.482Z,97850.47
2022-11-16T19:01:28.722Z,97852.16
2022-11-16T19:03:57.773Z,97846.25
2022-11-16T19:06:24.950Z,97845.41
2022-11-16T19:08:59.266Z,97848.72
2022-11-16T19:11:28.607Z,97838.63
2022-11-16T19:14:00.965Z,97848.72
2022-11-16T19:16:35.882Z,97836.97
2022-11-16T19:19:03.942Z,97833.66
2022-11-16T19:21:31.108Z,97826.94
2022-11-16T19:27:54.458Z,97813.63
2022-11-16T19:30:23.587Z,97813.63
2022-11-16T19:32:59.818Z,97814.47
2022-11-16T19:35:27.818Z,97807.66
2022-11-16T19:37:54.737Z,97793.28
2022-11-16T19:40:25.000Z,97794.00
2022-11-16T19:42:53.271Z,97782.09
2022-11-16T19:45:20.094Z,97770.41
2022-11-16T19:47:47.076Z,97766.13
2022-11-16T19:50:18.355Z,97755.19
2022-11-16T19:52:48.507Z,97753.56
2022-11-16T19:55:15.972Z,97745.81
2022-11-16T19:57:45.829Z,97747.53
2022-11-16T20:00:13.599Z,97737.38
2022-11-16T20:02:41.753Z,97732.97
2022-11-16T20:05:09.530Z,97728.81
2022-11-16T20:07:38.959Z,97726.25
2022-11-16T20:10:07.095Z,97724.66
2022-11-16T20:12:34.104Z,97721.34
2022-11-16T20:15:02.895Z,97709.47
2022-11-16T20:17:32.916Z,97717.06
2022-11-16T20:19:59.865Z,97708.47
2022-11-16T20:22:26.838Z,97706.69
2022-11-16T20:24:54.920Z,97692.22
2022-11-16T20:27:21.809Z,97678.56
2022-11-16T20:29:48.754Z,97662.28
2022-11-16T20:32:15.673Z,97666.53
2022-11-16T20:34:42.504Z,97670.72
2022-11-16T20:37:09.282Z,97663.03
2022-11-16T20:39:36.201Z,97656.31
2022-11-16T20:42:03.203Z,97657.91
2022-11-16T20:44:31.001Z,97649.59
2022-11-16T20:46:57.825Z,97659.75
2022-11-16T20:49:24.719Z,97656.34
2022-11-16T20:51:53.890Z,97654.72
2022-11-16T20:54:20.851Z,97656.44
2022-11-16T20:56:50.992Z,97653.06
2022-11-16T20:59:18.056Z,97652.22
2022-11-16T21:01:48.200Z,97642.13
2022-11-16T21:04:15.996Z,97638.78
2022-11-16T21:06:42.969Z,97628.69
2022-11-16T21:09:14.585Z,97627.84
2022-11-16T21:12:00.170Z,97630.31
2022-11-16T21:14:29.632Z,97622.13
2022-11-16T21:17:16.909Z,97621.41
2022-11-16T21:20:31.992Z,97607.19
2022-11-16T21:23:32.143Z,97609.75
2022-11-16T21:26:08.278Z,97600.63
2022-11-16T21:28:35.071Z,97598.22
2022-11-16T21:31:05.725Z,97589.94
2022-11-16T21:33:33.346Z,97584.25
2022-11-16T21:36:14.605Z,97571.78
2022-11-16T21:38:45.406Z,97561.84
2022-11-16T21:41:14.993Z,97573.09
2022-11-16T21:43:42.322Z,97545.34
2022-11-16T21:46:21.167Z,97548.91
2022-11-16T21:48:48.975Z,97551.59
2022-11-16T21:51:18.694Z,97544.97
2022-11-16T21:53:46.219Z,97542.44
2022-11-16T21:56:17.868Z,97533.22
2022-11-16T21:58:45.681Z,97533.22
2022-11-16T22:01:16.411Z,97523.91
2022-11-16T22:03:44.626Z,97508.00
2022-11-16T22:06:33.148Z,97501.16
2022-11-16T22:09:00.720Z,97490.28
2022-11-16T22:11:28.076Z,97477.75
2022-11-16T22:13:54.909Z,97480.16
2022-11-16T22:16:24.931Z,97477.47
2022-11-16T22:18:51.827Z,97471.59
2022-11-16T22:21:18.615Z,97468.09
2022-11-16T22:23:45.461Z,97463.81
2022-11-16T22:26:14.588Z,97455.25
2022-11-16T22:28:41.982Z,97447.56
2022-11-16T22:31:13.282Z,97433.25
2022-11-16T22:33:41.008Z,97424.63
2022-11-16T22:36:10.496Z,97417.75
2022-11-16T22:38:38.084Z,97417.63
2022-11-16T22:41:05.329Z,97408.28
2022-11-16T22:43:33.185Z,97408.28
2022-11-16T22:46:02.593Z,97401.44
2022-11-16T22:48:36.475Z,97401.38
2022-11-16T22:51:20.297Z,97385.25
2022-11-16T22:53:49.220Z,97378.38
2022-11-16T22:56:15.979Z,97376.59
2022-11-16T22:58:42.797Z,97364.63
2022-11-16T23:01:10.202Z,97347.63
2022-11-16T23:03:38.355Z,97347.63
2022-11-16T23:06:06.724Z,97345.72
2022-11-16T23:08:35.775Z,97346.44
2022-11-16T23:11:34.101Z,97337.88
2022-11-16T23:14:20.857Z,97324.44
2022-11-16T23:16:48.514Z,97322.56
2022-11-16T23:19:37.389Z,97310.69
2022-11-16T23:22:23.910Z,97303.00
2022-11-16T23:25:09.112Z,97280.31
2022-11-16T23:27:38.835Z,97266.66
2022-11-16T23:30:12.539Z,97267.31
2022-11-16T23:32:40.986Z,97264.75
2022-11-16T23:35:08.928Z,97264.59
2022-11-16T23:37:53.784Z,97261.00
2022-11-16T23:40:23.237Z,97231.28
2022-11-16T23:43:10.924Z,97237.00
2022-11-16T23:45:41.151Z,97232.84
2022-11-16T23:48:10.071Z,97215.06
2022-11-16T23:50:37.624Z,97209.06
2022-11-16T23:53:06.068Z,97205.66
2022-11-16T23:55:34.257Z,97196.47
2022-11-16T23:58:01.059Z,97192.13
